createdAt,value
2022-12-27T00:00:10.488Z,22.98
2022-12-27T00:02:58.179Z,23.27
2022-12-27T00:05:25.507Z,23.73
2022-12-27T00:07:53.083Z,21.25
2022-12-27T00:10:20.482Z,22.45
2022-12-27T00:12:48.106Z,22.35
2022-12-27T00:15:15.408Z,20.10
2022-12-27T00:17:43.008Z,19.98
2022-12-27T00:20:11.985Z,20.02
2022-12-27T00:22:45.687Z,18.08
2022-12-27T00:25:12.953Z,17.83
2022-12-27T00:27:40.552Z,20.20
2022-12-27T00:30:09.278Z,16.67
2022-12-27T00:32:36.889Z,17.73
2022-12-27T00:35:04.725Z,17.42
2022-12-27T00:37:32.216Z,15.88
2022-12-27T00:39:59.633Z,14.98
2022-12-27T00:42:27.182Z,15.65
2022-12-27T00:44:55.073Z,13.05
2022-12-27T00:47:22.631Z,12.80
2022-12-27T00:49:49.930Z,12.77
2022-12-27T00:52:19.634Z,12.00
2022-12-27T00:54:46.954Z,11.40
2022-12-27T00:57:14.561Z,13.07
2022-12-27T00:59:41.778Z,13.00
2022-12-27T01:02:09.477Z,12.52
2022-12-27T01:04:36.741Z,11.20
2022-12-27T01:07:04.407Z,12.02
2022-12-27T01:09:31.669Z,10.77
2022-12-27T01:11:59.280Z,11.55
2022-12-27T01:14:26.621Z,10.30
2022-12-27T01:16:54.210Z,11.93
2022-12-27T01:19:21.455Z,11.13
2022-12-27T01:21:49.024Z,10.73
2022-12-27T01:24:16.276Z,12.00
2022-12-27T01:26:43.886Z,10.52
2022-12-27T01:29:13.665Z,11.60
2022-12-27T01:31:41.586Z,12.15
2022-12-27T01:34:08.795Z,12.50
2022-12-27T01:36:36.463Z,11.93
2022-12-27T01:39:04.340Z,11.05
2022-12-27T01:41:55.064Z,14.05
2022-12-27T01:44:52.280Z,9.80
2022-12-27T01:47:57.144Z,10.60
2022-12-27T01:50:39.039Z,11.70
2022-12-27T01:53:25.627Z,12.57
2022-12-27T01:56:12.575Z,13.18
2022-12-27T01:59:10.967Z,15.75
2022-12-27T02:01:47.385Z,17.55
2022-12-27T02:04:24.114Z,13.65
2022-12-27T02:06:52.942Z,14.20
2022-12-27T02:09:42.459Z,14.02
2022-12-27T02:12:11.023Z,12.50
2022-12-27T02:14:45.576Z,13.52
2022-12-27T02:17:33.796Z,14.23
2022-12-27T02:20:11.256Z,14.27
2022-12-27T02:23:26.185Z,13.70
2022-12-27T02:26:47.104Z,14.13
2022-12-27T02:29:51.064Z,12.15
2022-12-27T02:33:10.253Z,12.77
2022-12-27T02:35:44.180Z,13.60
2022-12-27T02:38:26.196Z,11.95
2022-12-27T02:41:16.541Z,13.13
2022-12-27T02:44:02.844Z,11.90
2022-12-27T02:46:50.765Z,11.40
2022-12-27T02:49:52.581Z,11.48
2022-12-27T02:53:03.369Z,8.52
2022-12-27T02:56:07.975Z,10.30
2022-12-27T02:59:24.780Z,10.20
2022-12-27T03:02:57.593Z,10.35
2022-12-27T03:06:08.442Z,9.98
2022-12-27T03:08:51.597Z,9.00
2022-12-27T03:11:38.293Z,9.68
2022-12-27T03:14:51.971Z,8.00
2022-12-27T03:17:30.693Z,8.10
2022-12-27T03:20:25.450Z,9.73
2022-12-27T03:23:15.174Z,11.02
2022-12-27T03:25:46.540Z,9.15
2022-12-27T03:28:40.863Z,9.10
2022-12-27T03:31:50.819Z,7.47
2022-12-27T03:34:40.012Z,6.97
2022-12-27T03:37:59.145Z,8.20
2022-12-27T03:41:19.075Z,7.50
2022-12-27T03:43:46.711Z,6.05
2022-12-27T03:46:34.346Z,5.82
2022-12-27T03:49:14.001Z,4.13
2022-12-27T03:52:00.208Z,3.65
2022-12-27T03:54:39.808Z,4.28
2022-12-27T03:57:17.909Z,3.03
2022-12-27T03:59:45.916Z,2.85
2022-12-27T04:02:13.602Z,2.65
2022-12-27T04:04:41.842Z,4.25
2022-12-27T04:07:11.086Z,3.42
2022-12-27T04:09:57.505Z,2.58
2022-12-27T04:12:43.108Z,3.13
2022-12-27T04:15:30.068Z,3.40
2022-12-27T04:18:15.915Z,1.98
2022-12-27T04:21:02.311Z,3.17
2022-12-27T04:23:48.189Z,1.90
2022-12-27T04:26:34.768Z,5.70
2022-12-27T04:29:20.573Z,2.10
2022-12-27T04:32:06.886Z,2.75
2022-12-27T04:34:46.627Z,2.33
2022-12-27T04:37:20.200Z,2.83
2022-12-27T04:40:07.013Z,3.20
2022-12-27T04:42:53.224Z,3.45
2022-12-27T04:45:39.676Z,3.03
2022-12-27T04:48:33.163Z,3.33
2022-12-27T04:51:20.307Z,5.93
2022-12-27T04:54:06.461Z,3.38
2022-12-27T04:56:33.718Z,5.63
2022-12-27T04:59:19.821Z,4.40
2022-12-27T05:02:05.318Z,5.43
2022-12-27T05:04:37.887Z,5.07
2022-12-27T05:07:31.274Z,4.95
2022-12-27T05:10:20.387Z,7.55
2022-12-27T05:13:06.112Z,5.68
2022-12-27T05:15:33.752Z,4.00
2022-12-27T05:18:01.026Z,6.32
2022-12-27T05:20:28.600Z,5.15
2022-12-27T05:23:14.585Z,6.53
2022-12-27T05:25:45.497Z,5.13
2022-12-27T05:28:13.467Z,6.95
2022-12-27T05:30:44.167Z,6.10
2022-12-27T05:33:11.956Z,6.32
2022-12-27T05:35:40.554Z,5.38
2022-12-27T05:38:08.394Z,7.95
2022-12-27T05:40:36.016Z,11.25
2022-12-27T05:43:04.266Z,8.80
2022-12-27T05:45:33.292Z,12.30
2022-12-27T05:48:00.819Z,12.55
2022-12-27T05:50:28.563Z,6.88
2022-12-27T05:52:57.009Z,5.43
2022-12-27T05:55:24.570Z,7.15
2022-12-27T05:57:51.830Z,5.10
2022-12-27T06:00:19.714Z,6.95
2022-12-27T06:02:47.170Z,6.65
2022-12-27T06:05:15.014Z,7.90
2022-12-27T06:07:42.309Z,6.90
2022-12-27T06:10:11.191Z,6.70
2022-12-27T06:12:39.114Z,10.68
2022-12-27T06:15:07.753Z,4.90
2022-12-27T06:17:35.139Z,5.15
2022-12-27T06:20:03.174Z,7.35
2022-12-27T06:22:30.470Z,4.28
2022-12-27T06:24:57.984Z,7.72
2022-12-27T06:27:25.275Z,6.28
2022-12-27T06:29:52.845Z,4.43
2022-12-27T06:32:20.172Z,7.63
2022-12-27T06:34:47.732Z,6.88
2022-12-27T06:37:15.232Z,8.85
2022-12-27T06:39:42.794Z,10.40
2022-12-27T06:42:10.764Z,8.85
2022-12-27T06:44:38.264Z,5.85
2022-12-27T06:47:05.708Z,8.63
2022-12-27T06:49:33.277Z,7.72
2022-12-27T06:52:00.615Z,5.47
2022-12-27T06:54:29.416Z,9.10
2022-12-27T06:56:56.960Z,10.95
2022-12-27T06:59:24.907Z,8.82
2022-12-27T07:01:52.383Z,9.32
2022-12-27T07:04:20.125Z,11.90
2022-12-27T07:06:47.409Z,11.52
2022-12-27T07:09:15.001Z,12.70
2022-12-27T07:11:42.324Z,7.80
2022-12-27T07:14:10.904Z,9.57
2022-12-27T07:16:38.558Z,10.57
2022-12-27T07:19:06.208Z,9.63
2022-12-27T07:21:33.643Z,12.05
2022-12-27T07:24:01.204Z,16.55
2022-12-27T07:26:30.867Z,5.90
2022-12-27T07:29:01.557Z,6.75
2022-12-27T07:31:33.229Z,7.63
2022-12-27T07:34:03.658Z,8.40
2022-12-27T07:36:38.363Z,5.57
2022-12-27T07:39:07.994Z,9.77
2022-12-27T07:41:36.930Z,11.98
2022-12-27T07:44:06.251Z,8.45
2022-12-27T07:46:34.348Z,7.65
2022-12-27T07:49:02.005Z,8.50
2022-12-27T07:51:29.465Z,7.55
2022-12-27T07:53:57.239Z,10.55
2022-12-27T07:56:27.657Z,7.00
2022-12-27T07:58:58.372Z,7.50
2022-12-27T08:01:29.436Z,9.10
2022-12-27T08:06:41.794Z,14.15
2022-12-27T08:09:16.380Z,10.00
2022-12-27T08:11:43.737Z,12.68
2022-12-27T08:14:11.393Z,12.30
2022-12-27T08:16:38.865Z,11.63
2022-12-27T08:19:08.575Z,8.73
2022-12-27T08:21:36.089Z,9.63
2022-12-27T08:24:04.000Z,19.17
2022-12-27T08:26:31.324Z,11.23
2022-12-27T08:28:58.939Z,10.45
2022-12-27T08:31:26.266Z,7.22
2022-12-27T08:33:58.486Z,11.80
2022-12-27T08:36:54.087Z,11.73
2022-12-27T08:39:13.792Z,7.95
2022-12-27T08:41:41.089Z,11.07
2022-12-27T08:44:10.143Z,7.90
2022-12-27T08:46:38.186Z,9.23
2022-12-27T08:49:06.212Z,6.43
2022-12-27T08:51:40.728Z,10.60
2022-12-27T08:54:27.888Z,11.75
2022-12-27T08:56:55.235Z,4.75
2022-12-27T08:59:22.801Z,10.38
2022-12-27T09:01:50.234Z,9.07
2022-12-27T09:04:17.793Z,11.60
2022-12-27T09:06:45.766Z,8.60
2022-12-27T09:09:13.968Z,8.18
2022-12-27T09:11:41.391Z,9.85
2022-12-27T09:14:10.477Z,11.07
2022-12-27T09:16:39.293Z,8.98
2022-12-27T09:19:06.914Z,8.05
2022-12-27T09:21:36.476Z,6.70
2022-12-27T09:24:04.280Z,6.85
2022-12-27T09:26:31.863Z,8.02
2022-12-27T09:29:00.683Z,8.20
2022-12-27T09:31:29.321Z,7.82
2022-12-27T09:33:59.218Z,6.45
2022-12-27T09:36:30.055Z,7.18
2022-12-27T09:38:59.213Z,8.50
2022-12-27T09:45:03.756Z,7.07
2022-12-27T09:47:49.152Z,8.57
2022-12-27T09:50:28.277Z,8.35
2022-12-27T09:53:17.656Z,7.05
2022-12-27T09:55:49.096Z,9.05
2022-12-27T09:58:43.633Z,7.45
2022-12-27T10:01:34.473Z,6.25
2022-12-27T10:04:03.637Z,8.73
2022-12-27T10:06:50.279Z,6.70
2022-12-27T10:09:32.818Z,6.95
2022-12-27T10:12:40.386Z,6.72
2022-12-27T10:15:16.415Z,8.48
2022-12-27T10:18:03.745Z,6.85
2022-12-27T10:20:53.615Z,6.55
2022-12-27T10:23:28.408Z,4.95
2022-12-27T10:26:04.848Z,6.45
2022-12-27T10:28:59.369Z,6.97
2022-12-27T10:31:28.666Z,6.65
2022-12-27T10:33:57.289Z,6.30
2022-12-27T10:36:29.402Z,5.25
2022-12-27T10:38:57.423Z,5.53
2022-12-27T10:42:13.624Z,7.00
2022-12-27T10:44:41.484Z,3.25
2022-12-27T10:47:09.676Z,4.75
2022-12-27T10:49:39.775Z,5.65
2022-12-27T10:52:18.481Z,5.75
2022-12-27T10:54:54.345Z,9.65
2022-12-27T10:57:34.112Z,6.72
2022-12-27T11:00:23.469Z,6.28
2022-12-27T11:03:03.405Z,4.72
2022-12-27T11:05:34.330Z,5.22
2022-12-27T11:08:21.049Z,5.03
2022-12-27T11:10:48.699Z,5.25
2022-12-27T11:13:19.764Z,6.20
2022-12-27T11:15:58.984Z,5.53
2022-12-27T11:18:26.797Z,4.55
2022-12-27T11:20:58.531Z,3.67
2022-12-27T11:23:37.653Z,6.70
2022-12-27T11:26:07.568Z,3.97
2022-12-27T11:29:01.985Z,6.22
2022-12-27T11:31:46.645Z,6.10
2022-12-27T11:34:20.433Z,5.63
2022-12-27T11:36:53.544Z,5.90
2022-12-27T11:39:44.991Z,5.82
2022-12-27T11:42:39.519Z,8.80
2022-12-27T11:45:21.764Z,10.73
2022-12-27T11:48:06.177Z,9.13
2022-12-27T11:51:30.241Z,7.72
2022-12-27T11:54:11.002Z,6.53
2022-12-27T11:57:06.342Z,4.70
2022-12-27T12:00:11.270Z,6.25
2022-12-27T12:03:14.749Z,7.65
2022-12-27T12:06:03.680Z,3.63
2022-12-27T12:08:58.378Z,3.00
2022-12-27T12:12:01.207Z,3.97
2022-12-27T12:15:28.813Z,3.15
2022-12-27T12:18:23.003Z,6.85
2022-12-27T12:21:33.614Z,4.10
2022-12-27T12:24:44.863Z,4.60
2022-12-27T12:27:58.405Z,5.40
2022-12-27T12:31:13.292Z,3.22
2022-12-27T12:34:16.476Z,4.75
2022-12-27T12:37:07.027Z,2.92
2022-12-27T12:40:13.329Z,7.80
2022-12-27T12:43:01.856Z,6.20
2022-12-27T12:45:57.742Z,4.07
2022-12-27T12:49:18.913Z,4.68
2022-12-27T12:52:08.040Z,2.67
2022-12-27T12:54:56.648Z,4.95
2022-12-27T12:58:07.317Z,4.80
2022-12-27T13:00:56.500Z,3.50
2022-12-27T13:03:54.676Z,8.27
2022-12-27T13:06:44.233Z,8.23
2022-12-27T13:10:14.842Z,7.95
2022-12-27T13:13:14.906Z,6.70
2022-12-27T13:16:06.417Z,5.40
2022-12-27T13:18:59.024Z,4.30
2022-12-27T13:22:05.031Z,6.85
2022-12-27T13:25:22.298Z,5.15
2022-12-27T13:28:26.786Z,6.90
2022-12-27T13:31:35.804Z,4.47
2022-12-27T13:34:47.697Z,4.72
2022-12-27T13:37:48.851Z,4.05
2022-12-27T13:41:08.270Z,3.25
2022-12-27T13:44:22.532Z,6.95
2022-12-27T13:47:29.842Z,4.10
2022-12-27T13:50:24.674Z,5.40
2022-12-27T13:54:00.639Z,5.68
2022-12-27T13:57:12.841Z,6.72
2022-12-27T14:00:04.494Z,10.95
2022-12-27T14:02:38.526Z,10.68
2022-12-27T14:05:44.361Z,10.68
2022-12-27T14:08:56.781Z,7.93
2022-12-27T14:12:10.142Z,8.95
2022-12-27T14:14:41.878Z,6.88
2022-12-27T14:17:28.798Z,6.97
2022-12-27T14:20:22.319Z,10.90
2022-12-27T14:23:31.020Z,11.88
2022-12-27T14:26:57.741Z,9.70
2022-12-27T14:30:01.044Z,10.85
2022-12-27T14:32:53.381Z,10.98
2022-12-27T14:35:25.545Z,12.25
2022-12-27T14:38:33.092Z,11.68
2022-12-27T14:41:33.886Z,10.38
2022-12-27T14:44:52.119Z,12.55
2022-12-27T14:48:12.006Z,12.95
2022-12-27T14:51:49.850Z,12.05
2022-12-27T14:54:51.616Z,11.00
2022-12-27T14:57:34.370Z,12.85
2022-12-27T15:00:16.392Z,12.25
2022-12-27T15:03:05.302Z,11.50
2022-12-27T15:05:54.650Z,10.93
2022-12-27T15:09:07.115Z,10.00
2022-12-27T15:12:02.361Z,8.73
2022-12-27T15:15:15.181Z,9.50
2022-12-27T15:18:09.930Z,13.25
2022-12-27T15:20:56.847Z,9.00
2022-12-27T15:23:52.741Z,12.90
2022-12-27T15:26:51.593Z,11.50
2022-12-27T15:29:43.607Z,9.60
2022-12-27T15:32:53.060Z,13.50
2022-12-27T15:36:03.125Z,9.88
2022-12-27T15:38:54.147Z,13.45
2022-12-27T15:42:10.499Z,11.00
2022-12-27T15:45:15.456Z,9.30
2022-12-27T15:48:07.319Z,9.55
2022-12-27T15:50:44.682Z,11.05
2022-12-27T15:53:37.275Z,12.90
2022-12-27T15:56:57.831Z,15.32
2022-12-27T16:00:05.294Z,14.95
2022-12-27T16:02:59.314Z,18.60
2022-12-27T16:05:35.935Z,18.65
2022-12-27T16:08:03.776Z,16.98
2022-12-27T16:10:34.249Z,15.18
2022-12-27T16:13:11.091Z,11.95
2022-12-27T16:15:51.033Z,14.30
2022-12-27T16:18:24.750Z,15.48
2022-12-27T16:21:26.953Z,19.23
2022-12-27T16:24:11.452Z,15.80
2022-12-27T16:26:56.144Z,17.25
2022-12-27T16:29:36.637Z,18.02
2022-12-27T16:32:28.306Z,19.58
2022-12-27T16:35:16.225Z,14.65
2022-12-27T16:37:53.663Z,14.55
2022-12-27T16:40:48.645Z,15.68
2022-12-27T16:43:18.630Z,16.33
2022-12-27T16:46:17.835Z,17.35
2022-12-27T16:49:30.287Z,19.35
2022-12-27T16:52:17.393Z,21.65
2022-12-27T16:55:15.678Z,19.30
2022-12-27T16:57:49.509Z,16.17
2022-12-27T17:00:42.927Z,16.75
2022-12-27T17:03:37.010Z,19.45
2022-12-27T17:06:32.061Z,23.98
2022-12-27T17:09:09.742Z,21.30
2022-12-27T17:11:52.088Z,26.30
2022-12-27T17:14:26.510Z,26.45
2022-12-27T17:17:03.162Z,29.13
2022-12-27T17:19:59.486Z,25.52
2022-12-27T17:22:34.209Z,28.40
2022-12-27T17:25:03.459Z,20.83
2022-12-27T17:28:24.059Z,25.42
2022-12-27T17:31:45.733Z,27.23
2022-12-27T17:34:34.161Z,30.23
2022-12-27T17:37:40.123Z,27.38
2022-12-27T17:40:40.069Z,30.13
2022-12-27T17:44:06.560Z,32.28
2022-12-27T17:47:15.269Z,27.77
2022-12-27T17:49:44.291Z,27.25
2022-12-27T17:52:37.151Z,32.83
2022-12-27T17:55:36.511Z,25.33
2022-12-27T17:58:09.630Z,28.25
2022-12-27T18:00:59.625Z,30.42
2022-12-27T18:03:41.912Z,23.95
2022-12-27T18:06:10.829Z,27.33
2022-12-27T18:08:39.798Z,27.83
2022-12-27T18:11:10.434Z,25.70
2022-12-27T18:13:49.534Z,21.77
2022-12-27T18:16:39.244Z,21.70
2022-12-27T18:19:07.519Z,23.02
2022-12-27T18:21:35.256Z,20.67
2022-12-27T18:24:02.691Z,25.05
2022-12-27T18:26:41.044Z,25.27
2022-12-27T18:29:12.364Z,21.48
2022-12-27T18:31:53.475Z,25.23
2022-12-27T18:34:46.854Z,19.45
2022-12-27T18:37:21.688Z,22.58
2022-12-27T18:40:00.560Z,23.90
2022-12-27T18:42:43.795Z,23.50
2022-12-27T18:45:34.538Z,26.05
2022-12-27T18:48:12.030Z,21.35
2022-12-27T18:50:49.204Z,20.67
2022-12-27T18:53:32.046Z,23.70
2022-12-27T18:56:20.199Z,23.10
2022-12-27T18:59:19.214Z,21.60
2022-12-27T19:01:48.449Z,19.50
2022-12-27T19:04:18.660Z,20.85
2022-12-27T19:06:56.875Z,24.60
2022-12-27T19:09:34.184Z,19.50
2022-12-27T19:12:06.949Z,23.02
2022-12-27T19:14:46.393Z,22.75
2022-12-27T19:17:29.746Z,23.90
2022-12-27T19:20:04.370Z,28.05
2022-12-27T19:23:02.018Z,26.48
2022-12-27T19:25:35.003Z,24.95
2022-12-27T19:28:10.536Z,24.70
2022-12-27T19:30:46.512Z,25.60
2022-12-27T19:33:29.406Z,22.83
2022-12-27T19:35:58.062Z,26.95
2022-12-27T19:38:29.002Z,21.33
2022-12-27T19:41:03.868Z,24.75
2022-12-27T19:43:39.300Z,20.45
2022-12-27T19:46:07.251Z,27.83
2022-12-27T19:48:34.720Z,24.60
2022-12-27T19:51:02.490Z,24.85
2022-12-27T19:53:38.709Z,23.20
2022-12-27T19:56:09.419Z,25.05
2022-12-27T19:58:37.085Z,22.10
2022-12-27T20:01:05.176Z,27.50
2022-12-27T20:03:33.033Z,25.75
2022-12-27T20:06:12.947Z,24.13
2022-12-27T20:08:48.454Z,28.13
2022-12-27T20:11:22.354Z,28.35
2022-12-27T20:13:50.592Z,28.75
2022-12-27T20:16:20.463Z,30.05
2022-12-27T20:18:48.105Z,29.83
2022-12-27T20:21:19.070Z,27.38
2022-12-27T20:23:47.224Z,25.48
2022-12-27T20:26:22.908Z,24.85
2022-12-27T20:28:52.620Z,29.65
2022-12-27T20:31:22.603Z,25.95
2022-12-27T20:33:55.952Z,25.65
2022-12-27T20:36:24.698Z,29.67
2022-12-27T20:38:52.112Z,29.63
2022-12-27T20:41:23.084Z,36.10
2022-12-27T20:43:58.627Z,26.05
2022-12-27T20:46:26.675Z,30.85
2022-12-27T20:48:56.062Z,26.83
2022-12-27T20:51:33.543Z,33.55
2022-12-27T20:54:03.769Z,31.85
2022-12-27T20:56:31.579Z,28.33
2022-12-27T20:58:58.894Z,26.20
2022-12-27T21:01:27.287Z,27.65
2022-12-27T21:03:56.886Z,26.33
2022-12-27T21:06:28.623Z,24.65
2022-12-27T21:08:58.251Z,27.73
2022-12-27T21:11:32.355Z,24.17
2022-12-27T21:14:05.514Z,24.90
2022-12-27T21:16:35.227Z,26.38
2022-12-27T21:19:04.980Z,25.88
2022-12-27T21:21:36.521Z,26.00
2022-12-27T21:24:06.205Z,25.13
2022-12-27T21:26:37.547Z,26.60
2022-12-27T21:29:08.428Z,25.77
2022-12-27T21:31:37.850Z,27.65
2022-12-27T21:34:07.396Z,24.88
2022-12-27T21:36:36.534Z,28.98
2022-12-27T21:39:04.952Z,25.13
2022-12-27T21:41:37.219Z,22.67
2022-12-27T21:44:05.722Z,29.73
2022-12-27T21:46:41.528Z,26.67
2022-12-27T21:49:13.341Z,24.38
2022-12-27T21:51:43.763Z,25.63
2022-12-27T21:54:13.854Z,25.60
2022-12-27T21:56:42.428Z,24.48
2022-12-27T21:59:12.824Z,23.60
2022-12-27T22:01:50.276Z,29.27
2022-12-27T22:04:19.482Z,20.98
2022-12-27T22:06:48.007Z,21.58
2022-12-27T22:09:16.391Z,26.08
2022-12-27T22:11:44.433Z,24.15
2022-12-27T22:14:12.125Z,23.27
2022-12-27T22:16:40.537Z,26.10
2022-12-27T22:19:11.391Z,26.02
2022-12-27T22:21:40.878Z,23.27
2022-12-27T22:24:13.041Z,26.30
2022-12-27T22:26:42.305Z,25.67
2022-12-27T22:29:09.744Z,23.85
2022-12-27T22:31:38.251Z,27.38
2022-12-27T22:34:06.784Z,28.30
2022-12-27T22:36:35.085Z,31.05
2022-12-27T22:39:02.837Z,29.60
2022-12-27T22:41:34.156Z,28.65
2022-12-27T22:44:08.460Z,26.63
2022-12-27T22:47:07.006Z,30.05
2022-12-27T22:49:23.920Z,26.25
2022-12-27T22:51:51.756Z,25.08
2022-12-27T22:54:19.332Z,27.65
2022-12-27T22:56:46.971Z,29.77
2022-12-27T22:59:18.961Z,30.15
2022-12-27T23:01:46.695Z,31.98
2022-12-27T23:04:14.941Z,31.15
2022-12-27T23:06:43.285Z,26.20
2022-12-27T23:09:10.953Z,29.30
2022-12-27T23:11:41.189Z,33.75
2022-12-27T23:14:16.171Z,29.75
2022-12-27T23:16:49.918Z,29.13
2022-12-27T23:19:21.607Z,27.05
2022-12-27T23:21:50.512Z,26.67
2022-12-27T23:24:17.787Z,27.15
2022-12-27T23:26:45.713Z,27.15
2022-12-27T23:29:14.779Z,25.02
2022-12-27T23:31:54.391Z,24.65
2022-12-27T23:34:28.233Z,25.95
2022-12-27T23:36:58.634Z,25.17
2022-12-27T23:39:26.513Z,24.27
2022-12-27T23:41:54.554Z,22.42
2022-12-27T23:44:33.014Z,23.17
2022-12-27T23:47:05.530Z,22.83
2022-12-27T23:49:33.864Z,24.95
2022-12-27T23:52:01.649Z,23.55
2022-12-27T23:54:29.121Z,26.60
2022-12-27T23:56:56.878Z,24.63
2022-12-27T23:59:24.781Z,24.77
